createdAt,value
2022-11-24T00:00:33.863Z,97924.90
2022-11-24T00:05:38.679Z,97918.89
2022-11-24T00:10:40.556Z,97916.81
2022-11-24T00:15:42.440Z,97917.39
2022-11-24T00:20:52.203Z,97921.04
2022-11-24T00:25:53.938Z,97927.18
2022-11-24T00:30:56.622Z,97932.38
2022-11-24T00:36:00.271Z,97936.42
2022-11-24T00:41:02.181Z,97948.08
2022-11-24T00:46:04.619Z,97950.89
2022-11-24T00:51:09.969Z,97952.25
2022-11-24T00:56:12.834Z,97952.33
2022-11-24T01:01:17.936Z,97959.46
2022-11-24T01:06:22.540Z,97965.59
2022-11-24T01:12:04.317Z,97962.63
2022-11-24T01:17:06.534Z,97967.58
2022-11-24T01:22:08.298Z,97973.52
2022-11-24T01:27:10.195Z,97966.20
2022-11-24T01:32:11.973Z,97962.94
2022-11-24T01:37:13.742Z,97967.18
2022-11-24T01:42:15.729Z,97970.63
2022-11-24T01:47:36.579Z,97977.55
2022-11-24T01:52:44.485Z,97976.99
2022-11-24T01:57:49.833Z,97975.92
2022-11-24T02:02:53.162Z,97975.98
2022-11-24T02:07:59.945Z,97972.81
2022-11-24T02:13:02.437Z,97974.14
2022-11-24T02:18:04.523Z,97972.17
2022-11-24T02:23:12.848Z,97980.02
2022-11-24T02:28:18.806Z,97985.33
2022-11-24T02:33:22.807Z,97984.47
2022-11-24T02:38:33.040Z,97977.09
2022-11-24T02:43:43.410Z,97979.84
2022-11-24T02:48:45.189Z,97972.65
2022-11-24T02:53:47.069Z,97970.70
2022-11-24T02:58:48.950Z,97971.64
2022-11-24T03:03:50.765Z,97977.20
2022-11-24T03:08:52.603Z,97979.64
2022-11-24T03:13:54.351Z,97982.93
2022-11-24T03:18:56.280Z,97982.48
2022-11-24T03:23:58.459Z,97981.23
2022-11-24T03:29:00.335Z,97989.42
2022-11-24T03:34:02.206Z,97989.20
2022-11-24T03:39:04.332Z,97992.56
2022-11-24T03:44:06.115Z,97990.44
2022-11-24T03:49:07.950Z,97994.66
2022-11-24T03:54:09.828Z,97996.90
2022-11-24T03:59:11.607Z,98005.09
2022-11-24T04:04:14.004Z,98007.88
2022-11-24T04:09:15.805Z,98013.88
2022-11-24T04:14:18.581Z,98017.58
2022-11-24T04:19:20.455Z,98012.77
2022-11-24T04:24:22.336Z,98018.52
2022-11-24T04:29:24.155Z,98019.56
2022-11-24T04:34:25.993Z,98027.83
2022-11-24T04:39:28.898Z,98032.75
2022-11-24T04:44:31.145Z,98040.52
2022-11-24T04:49:33.064Z,98047.29
2022-11-24T04:54:35.106Z,98055.98
2022-11-24T04:59:37.234Z,98061.89
2022-11-24T05:04:39.633Z,98064.43
2022-11-24T05:10:00.042Z,98069.81
2022-11-24T05:15:04.179Z,98067.25
2022-11-24T05:20:07.291Z,98075.21
2022-11-24T05:25:09.367Z,98065.21
2022-11-24T05:30:12.033Z,98068.05
2022-11-24T05:35:14.558Z,98064.11
2022-11-24T05:40:17.052Z,98066.13
2022-11-24T05:45:20.983Z,98071.84
2022-11-24T05:50:23.270Z,98081.51
2022-11-24T05:55:25.046Z,98091.91
2022-11-24T06:00:27.728Z,98101.09
2022-11-24T06:05:30.035Z,98107.32
2022-11-24T06:10:31.805Z,98115.18
2022-11-24T06:15:34.854Z,98119.73
2022-11-24T06:20:36.587Z,98126.06
2022-11-24T06:25:38.378Z,98132.45
2022-11-24T06:30:40.045Z,98140.45
2022-11-24T06:35:41.800Z,98142.28
2022-11-24T06:40:43.575Z,98145.89
2022-11-24T06:45:51.032Z,98150.20
2022-11-24T06:50:53.279Z,98154.17
2022-11-24T06:55:59.022Z,98156.63
2022-11-24T07:01:00.857Z,98158.04
2022-11-24T07:06:02.676Z,98156.36
2022-11-24T07:11:06.274Z,98165.41
2022-11-24T07:16:25.245Z,98170.21
2022-11-24T07:21:28.271Z,98174.27
2022-11-24T07:26:30.090Z,98176.49
2022-11-24T07:31:32.175Z,98183.34
2022-11-24T07:36:33.991Z,98185.00
2022-11-24T07:41:35.709Z,98187.17
2022-11-24T07:46:37.469Z,98190.96
2022-11-24T07:51:39.180Z,98191.60
2022-11-24T07:56:41.379Z,98200.55
2022-11-24T08:01:43.188Z,98208.70
2022-11-24T08:06:47.538Z,98210.04
2022-11-24T08:11:49.509Z,98208.55
2022-11-24T08:16:51.361Z,98210.14
2022-11-24T08:21:53.203Z,98224.23
2022-11-24T08:26:55.089Z,98227.73
2022-11-24T08:31:57.874Z,98231.09
2022-11-24T08:36:59.689Z,98239.70
2022-11-24T08:42:01.527Z,98241.23
2022-11-24T08:47:03.289Z,98244.05
2022-11-24T08:52:05.293Z,98247.58
2022-11-24T08:57:07.227Z,98250.89
2022-11-24T09:02:14.768Z,98247.55
2022-11-24T09:07:16.655Z,98246.25
2022-11-24T09:12:18.368Z,98252.05
2022-11-24T09:17:20.029Z,98250.43
2022-11-24T09:22:21.728Z,98253.52
2022-11-24T09:27:23.677Z,98254.09
2022-11-24T09:32:25.915Z,98259.38
2022-11-24T09:37:32.460Z,98262.17
2022-11-24T09:42:53.780Z,98259.76
2022-11-24T09:48:08.446Z,98258.35
2022-11-24T09:53:31.587Z,98259.19
2022-11-24T09:58:51.760Z,98256.41
2022-11-24T10:03:54.197Z,98260.00
2022-11-24T10:09:07.986Z,98261.09
2022-11-24T10:14:47.405Z,98260.05
2022-11-24T10:20:06.177Z,98264.19
2022-11-24T10:26:03.626Z,98264.60
2022-11-24T10:31:24.081Z,98267.92
2022-11-24T10:37:01.406Z,98268.02
2022-11-24T10:42:15.972Z,98275.55
2022-11-24T10:47:22.985Z,98276.92
2022-11-24T10:52:25.295Z,98277.88
2022-11-24T10:57:39.161Z,98279.80
2022-11-24T11:02:41.055Z,98276.99
2022-11-24T11:07:43.014Z,98277.83
2022-11-24T11:12:45.847Z,98279.22
2022-11-24T11:17:52.257Z,98279.92
2022-11-24T11:22:56.313Z,98273.98
2022-11-24T11:28:19.915Z,98270.77
2022-11-24T11:38:49.047Z,98279.53
2022-11-24T11:44:01.423Z,98284.45
2022-11-24T11:49:03.574Z,98283.69
2022-11-24T11:54:08.197Z,98286.49
2022-11-24T11:59:22.365Z,98285.63
2022-11-24T12:04:32.594Z,98286.66
2022-11-24T12:09:56.336Z,98293.19
2022-11-24T12:15:23.506Z,98295.92
2022-11-24T12:20:44.003Z,98297.63
2022-11-24T12:25:47.572Z,98302.89
2022-11-24T12:31:12.493Z,98299.79
2022-11-24T12:36:31.150Z,98303.86
2022-11-24T12:41:47.417Z,98298.42
2022-11-24T12:46:59.270Z,98300.01
2022-11-24T12:52:24.720Z,98308.33
2022-11-24T12:57:33.273Z,98317.57
2022-11-24T13:03:00.639Z,98318.52
2022-11-24T13:08:04.427Z,98318.73
2022-11-24T13:13:08.499Z,98323.56
2022-11-24T13:18:42.139Z,98326.57
2022-11-24T13:24:06.935Z,98330.20
2022-11-24T13:29:27.326Z,98332.52
2022-11-24T13:34:42.916Z,98340.52
2022-11-24T13:39:56.211Z,98346.59
2022-11-24T13:44:59.234Z,98350.52
2022-11-24T13:50:03.635Z,98360.70
2022-11-24T13:55:11.854Z,98364.13
2022-11-24T14:00:26.868Z,98364.08
2022-11-24T14:05:39.032Z,98370.05
2022-11-24T14:10:42.178Z,98381.20
2022-11-24T14:15:44.303Z,98393.54
2022-11-24T14:20:46.164Z,98395.59
2022-11-24T14:25:52.465Z,98400.21
2022-11-24T14:31:24.947Z,98406.15
2022-11-24T14:36:26.889Z,98412.30
2022-11-24T14:41:28.777Z,98412.48
2022-11-24T14:46:30.601Z,98418.81
2022-11-24T14:51:37.623Z,98418.36
2022-11-24T14:56:40.512Z,98424.70
2022-11-24T15:01:42.515Z,98427.33
2022-11-24T15:06:47.764Z,98433.51
2022-11-24T15:11:49.729Z,98438.52
2022-11-24T15:16:51.525Z,98438.48
2022-11-24T15:21:53.432Z,98441.97
2022-11-24T15:27:01.587Z,98439.59
2022-11-24T15:32:14.353Z,98434.79
2022-11-24T15:37:16.163Z,98448.09
2022-11-24T15:42:17.951Z,98456.64
2022-11-24T15:47:19.697Z,98461.30
2022-11-24T15:52:21.607Z,98466.55
2022-11-24T15:57:23.442Z,98474.27
2022-11-24T16:02:25.304Z,98478.61
2022-11-24T16:07:27.516Z,98480.27
2022-11-24T16:12:29.335Z,98478.98
2022-11-24T16:17:31.050Z,98485.35
2022-11-24T16:22:32.699Z,98486.98
2022-11-24T16:27:34.484Z,98488.56
2022-11-24T16:32:36.284Z,98493.51
2022-11-24T16:37:38.704Z,98493.88
2022-11-24T16:42:40.442Z,98496.31
2022-11-24T16:47:42.992Z,98496.46
2022-11-24T16:52:44.720Z,98503.41
2022-11-24T16:57:47.038Z,98506.05
2022-11-24T17:02:48.852Z,98508.27
2022-11-24T17:07:50.719Z,98514.79
2022-11-24T17:12:52.480Z,98517.33
2022-11-24T17:18:22.316Z,98521.52
2022-11-24T17:23:16.019Z,98527.33
2022-11-24T17:28:17.759Z,98529.35
2022-11-24T17:33:19.394Z,98535.32
2022-11-24T17:38:21.207Z,98540.12
2022-11-24T17:43:22.983Z,98544.13
2022-11-24T17:48:25.320Z,98549.06
2022-11-24T17:53:27.817Z,98562.89
2022-11-24T17:58:29.993Z,98568.63
2022-11-24T18:03:32.646Z,98572.63
2022-11-24T18:08:38.552Z,98577.41
2022-11-24T18:13:56.703Z,98585.34
2022-11-24T18:19:08.836Z,98592.91
2022-11-24T18:24:11.963Z,98589.15
2022-11-24T18:29:13.883Z,98595.20
2022-11-24T18:34:15.693Z,98595.96
2022-11-24T18:39:18.785Z,98598.52
2022-11-24T18:44:20.722Z,98604.27
2022-11-24T18:49:22.606Z,98608.15
2022-11-24T18:54:24.461Z,98610.33
2022-11-24T18:59:26.398Z,98607.89
2022-11-24T19:04:44.435Z,98607.09
2022-11-24T19:09:46.685Z,98610.70
2022-11-24T19:14:48.424Z,98613.87
2022-11-24T19:19:51.721Z,98616.92
2022-11-24T19:24:53.552Z,98626.17
2022-11-24T19:29:55.331Z,98639.96
2022-11-24T19:34:57.205Z,98643.27
2022-11-24T19:39:59.047Z,98645.50
2022-11-24T19:45:00.969Z,98644.23
2022-11-24T19:50:07.393Z,98648.41
2022-11-24T19:55:12.125Z,98650.42
2022-11-24T20:00:14.583Z,98648.18
2022-11-24T20:05:16.453Z,98649.96
2022-11-24T20:10:18.298Z,98651.51
2022-11-24T20:15:20.897Z,98656.03
2022-11-24T20:20:22.799Z,98660.52
2022-11-24T20:25:24.995Z,98667.77
2022-11-24T20:30:26.709Z,98668.96
2022-11-24T20:35:28.543Z,98671.05
2022-11-24T20:40:30.382Z,98672.29
2022-11-24T20:45:32.295Z,98674.62
2022-11-24T20:50:36.058Z,98681.98
2022-11-24T20:55:37.940Z,98688.29
2022-11-24T21:00:39.966Z,98689.38
2022-11-24T21:05:41.909Z,98691.73
2022-11-24T21:10:51.462Z,98686.11
2022-11-24T21:15:53.855Z,98684.76
2022-11-24T21:20:59.127Z,98685.30
2022-11-24T21:26:05.408Z,98689.73
2022-11-24T21:31:08.919Z,98696.01
2022-11-24T21:36:11.204Z,98700.55
2022-11-24T21:41:14.065Z,98706.09
2022-11-24T21:46:16.354Z,98711.41
2022-11-24T21:51:19.194Z,98714.15
2022-11-24T21:56:22.105Z,98721.33
2022-11-24T22:01:25.257Z,98723.92
2022-11-24T22:06:27.101Z,98726.41
2022-11-24T22:11:28.894Z,98726.91
2022-11-24T22:16:30.875Z,98724.27
2022-11-24T22:21:33.624Z,98726.59
2022-11-24T22:26:35.919Z,98734.25
2022-11-24T22:31:37.887Z,98735.90
2022-11-24T22:36:39.881Z,98736.70
2022-11-24T22:41:41.771Z,98749.13
2022-11-24T22:46:43.745Z,98746.37
2022-11-24T22:51:45.505Z,98755.01
2022-11-24T22:56:47.476Z,98757.64
2022-11-24T23:01:49.277Z,98758.33
2022-11-24T23:06:51.212Z,98761.16
2022-11-24T23:11:52.979Z,98756.76
2022-11-24T23:16:54.872Z,98752.41
2022-11-24T23:21:56.975Z,98756.16
2022-11-24T23:26:58.795Z,98756.23
2022-11-24T23:32:00.754Z,98757.96
2022-11-24T23:37:02.501Z,98756.19
2022-11-24T23:42:04.579Z,98763.97
2022-11-24T23:47:06.671Z,98768.21
2022-11-24T23:52:08.605Z,98769.65
2022-11-24T23:57:10.342Z,98771.25
